sensor_id;sensor_type;location;lat;lon;timestamp;P1;durP1;ratioP1;P2;durP2;ratioP2
4961;SDS011;2496;52.468;13.342;2023-06-22T00:01:17;13.80;;;11.73;;
4961;SDS011;2496;52.468;13.342;2023-06-22T00:03:45;13.10;;;11.70;;
4961;SDS011;2496;52.468;13.342;2023-06-22T00:06:12;15.57;;;11.70;;
4961;SDS011;2496;52.468;13.342;2023-06-22T00:08:39;12.90;;;11.50;;
4961;SDS011;2496;52.468;13.342;2023-06-22T00:11:06;15.07;;;11.97;;
4961;SDS011;2496;52.468;13.342;2023-06-22T00:13:35;11.93;;;9.80;;
4961;SDS011;2496;52.468;13.342;2023-06-22T00:16:02;11.63;;;10.43;;
4961;SDS011;2496;52.468;13.342;2023-06-22T00:18:29;11.73;;;9.43;;
4961;SDS011;2496;52.468;13.342;2023-06-22T00:20:56;13.63;;;11.23;;
4961;SDS011;2496;52.468;13.342;2023-06-22T00:23:24;11.07;;;9.93;;
4961;SDS011;2496;52.468;13.342;2023-06-22T00:25:51;12.53;;;11.23;;
4961;SDS011;2496;52.468;13.342;2023-06-22T00:28:18;15.70;;;11.20;;
4961;SDS011;2496;52.468;13.342;2023-06-22T00:30:48;12.60;;;9.73;;
4961;SDS011;2496;52.468;13.342;2023-06-22T00:33:15;11.57;;;10.37;;
4961;SDS011;2496;52.468;13.342;2023-06-22T00:35:42;11.40;;;9.00;;
4961;SDS011;2496;52.468;13.342;2023-06-22T00:38:09;11.33;;;10.20;;
4961;SDS011;2496;52.468;13.342;2023-06-22T00:40:36;15.60;;;9.77;;
4961;SDS011;2496;52.468;13.342;2023-06-22T00:43:03;12.90;;;10.50;;
4961;SDS011;2496;52.468;13.342;2023-06-22T00:45:31;14.70;;;9.93;;
4961;SDS011;2496;52.468;13.342;2023-06-22T00:48:00;11.90;;;10.13;;
4961;SDS011;2496;52.468;13.342;2023-06-22T00:50:28;13.70;;;10.53;;
4961;SDS011;2496;52.468;13.342;2023-06-22T00:52:58;12.70;;;11.40;;
4961;SDS011;2496;52.468;13.342;2023-06-22T00:55:27;12.37;;;10.13;;
4961;SDS011;2496;52.468;13.342;2023-06-22T00:57:55;12.17;;;10.90;;
4961;SDS011;2496;52.468;13.342;2023-06-22T01:00:23;15.87;;;10.80;;
4961;SDS011;2496;52.468;13.342;2023-06-22T01:02:51;11.63;;;10.47;;
4961;SDS011;2496;52.468;13.342;2023-06-22T01:05:20;11.60;;;10.40;;
4961;SDS011;2496;52.468;13.342;2023-06-22T01:10:34;14.10;;;11.23;;
4961;SDS011;2496;52.468;13.342;2023-06-22T01:13:07;11.37;;;10.20;;
4961;SDS011;2496;52.468;13.342;2023-06-22T01:15:43;13.83;;;10.40;;
4961;SDS011;2496;52.468;13.342;2023-06-22T01:18:16;12.17;;;10.97;;
4961;SDS011;2496;52.468;13.342;2023-06-22T01:20:46;13.93;;;11.37;;
4961;SDS011;2496;52.468;13.342;2023-06-22T01:23:17;13.03;;;11.73;;
4961;SDS011;2496;52.468;13.342;2023-06-22T01:25:56;12.90;;;10.70;;
4961;SDS011;2496;52.468;13.342;2023-06-22T01:28:42;11.13;;;10.07;;
4961;SDS011;2496;52.468;13.342;2023-06-22T01:31:11;14.53;;;11.57;;
4961;SDS011;2496;52.468;13.342;2023-06-22T01:33:41;18.00;;;11.43;;
4961;SDS011;2496;52.468;13.342;2023-06-22T01:36:11;13.63;;;12.33;;
4961;SDS011;2496;52.468;13.342;2023-06-22T01:38:39;16.50;;;11.67;;
4961;SDS011;2496;52.468;13.342;2023-06-22T01:41:07;14.23;;;12.80;;
4961;SDS011;2496;52.468;13.342;2023-06-22T01:43:35;15.93;;;13.80;;
4961;SDS011;2496;52.468;13.342;2023-06-22T01:46:04;13.90;;;12.50;;
4961;SDS011;2496;52.468;13.342;2023-06-22T01:48:32;15.10;;;13.50;;
4961;SDS011;2496;52.468;13.342;2023-06-22T01:50:59;16.10;;;14.60;;
4961;SDS011;2496;52.468;13.342;2023-06-22T01:53:26;15.07;;;12.50;;
4961;SDS011;2496;52.468;13.342;2023-06-22T01:55:53;20.27;;;14.37;;
4961;SDS011;2496;52.468;13.342;2023-06-22T01:58:22;21.00;;;15.43;;
4961;SDS011;2496;52.468;13.342;2023-06-22T02:00:53;19.63;;;15.60;;
4961;SDS011;2496;52.468;13.342;2023-06-22T02:03:27;17.73;;;14.53;;
4961;SDS011;2496;52.468;13.342;2023-06-22T02:06:00;16.37;;;14.67;;
4961;SDS011;2496;52.468;13.342;2023-06-22T02:08:30;17.23;;;15.37;;
4961;SDS011;2496;52.468;13.342;2023-06-22T02:11:04;19.70;;;15.30;;
4961;SDS011;2496;52.468;13.342;2023-06-22T02:13:32;21.60;;;14.30;;
4961;SDS011;2496;52.468;13.342;2023-06-22T02:16:00;17.20;;;14.00;;
4961;SDS011;2496;52.468;13.342;2023-06-22T02:18:29;17.10;;;14.60;;
4961;SDS011;2496;52.468;13.342;2023-06-22T02:20:56;16.77;;;14.70;;
4961;SDS011;2496;52.468;13.342;2023-06-22T02:23:24;20.57;;;15.03;;
4961;SDS011;2496;52.468;13.342;2023-06-22T02:25:52;16.47;;;14.73;;
4961;SDS011;2496;52.468;13.342;2023-06-22T02:28:19;18.30;;;16.40;;
4961;SDS011;2496;52.468;13.342;2023-06-22T02:30:45;17.63;;;15.23;;
4961;SDS011;2496;52.468;13.342;2023-06-22T02:33:13;17.50;;;15.23;;
4961;SDS011;2496;52.468;13.342;2023-06-22T02:35:42;16.77;;;15.00;;
4961;SDS011;2496;52.468;13.342;2023-06-22T02:38:13;19.23;;;17.20;;
4961;SDS011;2496;52.468;13.342;2023-06-22T02:40:40;18.47;;;16.10;;
4961;SDS011;2496;52.468;13.342;2023-06-22T02:43:07;19.90;;;16.77;;
4961;SDS011;2496;52.468;13.342;2023-06-22T02:45:35;18.93;;;16.40;;
4961;SDS011;2496;52.468;13.342;2023-06-22T02:48:02;16.80;;;15.10;;
4961;SDS011;2496;52.468;13.342;2023-06-22T02:50:29;19.90;;;17.57;;
4961;SDS011;2496;52.468;13.342;2023-06-22T02:52:58;20.20;;;16.77;;
4961;SDS011;2496;52.468;13.342;2023-06-22T02:55:25;19.40;;;16.30;;
4961;SDS011;2496;52.468;13.342;2023-06-22T02:57:51;18.93;;;16.73;;
4961;SDS011;2496;52.468;13.342;2023-06-22T03:00:19;18.97;;;16.93;;
4961;SDS011;2496;52.468;13.342;2023-06-22T03:02:47;20.00;;;17.13;;
4961;SDS011;2496;52.468;13.342;2023-06-22T03:05:15;21.60;;;17.07;;
4961;SDS011;2496;52.468;13.342;2023-06-22T03:07:43;19.17;;;15.07;;
4961;SDS011;2496;52.468;13.342;2023-06-22T03:10:12;19.87;;;17.10;;
4961;SDS011;2496;52.468;13.342;2023-06-22T03:12:40;18.93;;;16.47;;
4961;SDS011;2496;52.468;13.342;2023-06-22T03:15:09;20.17;;;17.27;;
4961;SDS011;2496;52.468;13.342;2023-06-22T03:17:37;19.20;;;16.57;;
4961;SDS011;2496;52.468;13.342;2023-06-22T03:20:06;20.27;;;17.93;;
4961;SDS011;2496;52.468;13.342;2023-06-22T03:22:36;21.80;;;16.30;;
4961;SDS011;2496;52.468;13.342;2023-06-22T03:25:03;20.40;;;16.20;;
4961;SDS011;2496;52.468;13.342;2023-06-22T03:27:37;24.03;;;16.97;;
4961;SDS011;2496;52.468;13.342;2023-06-22T03:30:04;19.37;;;17.07;;
4961;SDS011;2496;52.468;13.342;2023-06-22T03:32:33;22.63;;;16.43;;
4961;SDS011;2496;52.468;13.342;2023-06-22T03:35:00;22.23;;;17.80;;
4961;SDS011;2496;52.468;13.342;2023-06-22T03:37:27;20.83;;;16.73;;
4961;SDS011;2496;52.468;13.342;2023-06-22T03:39:54;21.83;;;17.80;;
4961;SDS011;2496;52.468;13.342;2023-06-22T03:42:22;17.60;;;15.80;;
4961;SDS011;2496;52.468;13.342;2023-06-22T03:44:50;22.50;;;16.80;;
4961;SDS011;2496;52.468;13.342;2023-06-22T03:47:17;18.77;;;16.83;;
4961;SDS011;2496;52.468;13.342;2023-06-22T03:49:44;18.77;;;16.53;;
4961;SDS011;2496;52.468;13.342;2023-06-22T03:52:11;19.17;;;17.17;;
4961;SDS011;2496;52.468;13.342;2023-06-22T03:54:39;19.10;;;16.37;;
4961;SDS011;2496;52.468;13.342;2023-06-22T03:57:06;16.47;;;14.77;;
4961;SDS011;2496;52.468;13.342;2023-06-22T03:59:34;15.27;;;12.90;;
4961;SDS011;2496;52.468;13.342;2023-06-22T04:02:03;15.30;;;13.17;;
4961;SDS011;2496;52.468;13.342;2023-06-22T04:04:30;16.53;;;14.70;;
4961;SDS011;2496;52.468;13.342;2023-06-22T04:06:58;14.07;;;12.23;;
4961;SDS011;2496;52.468;13.342;2023-06-22T04:09:25;14.83;;;13.37;;
4961;SDS011;2496;52.468;13.342;2023-06-22T04:11:52;17.17;;;13.40;;
4961;SDS011;2496;52.468;13.342;2023-06-22T04:14:20;15.27;;;13.70;;
4961;SDS011;2496;52.468;13.342;2023-06-22T04:16:47;14.47;;;12.97;;
4961;SDS011;2496;52.468;13.342;2023-06-22T04:19:16;15.50;;;12.97;;
4961;SDS011;2496;52.468;13.342;2023-06-22T04:21:43;15.30;;;12.80;;
4961;SDS011;2496;52.468;13.342;2023-06-22T04:24:13;15.33;;;12.50;;
4961;SDS011;2496;52.468;13.342;2023-06-22T04:26:40;15.40;;;12.50;;
4961;SDS011;2496;52.468;13.342;2023-06-22T04:29:10;13.60;;;11.77;;
4961;SDS011;2496;52.468;13.342;2023-06-22T04:31:38;16.77;;;12.70;;
4961;SDS011;2496;52.468;13.342;2023-06-22T04:34:06;16.03;;;12.33;;
4961;SDS011;2496;52.468;13.342;2023-06-22T04:36:36;14.27;;;11.47;;
4961;SDS011;2496;52.468;13.342;2023-06-22T04:39:05;17.13;;;12.30;;
4961;SDS011;2496;52.468;13.342;2023-06-22T04:41:34;13.60;;;11.10;;
4961;SDS011;2496;52.468;13.342;2023-06-22T04:44:08;14.93;;;10.77;;
4961;SDS011;2496;52.468;13.342;2023-06-22T04:46:36;11.83;;;9.93;;
4961;SDS011;2496;52.468;13.342;2023-06-22T04:49:04;15.97;;;10.43;;
4961;SDS011;2496;52.468;13.342;2023-06-22T04:51:36;14.00;;;9.50;;
4961;SDS011;2496;52.468;13.342;2023-06-22T04:54:04;13.10;;;9.17;;
4961;SDS011;2496;52.468;13.342;2023-06-22T04:56:31;13.53;;;9.77;;
4961;SDS011;2496;52.468;13.342;2023-06-22T04:58:58;11.20;;;9.73;;
4961;SDS011;2496;52.468;13.342;2023-06-22T05:01:26;10.77;;;9.43;;
4961;SDS011;2496;52.468;13.342;2023-06-22T05:03:53;14.10;;;9.40;;
4961;SDS011;2496;52.468;13.342;2023-06-22T05:06:22;11.80;;;8.33;;
4961;SDS011;2496;52.468;13.342;2023-06-22T05:08:52;10.70;;;8.47;;
4961;SDS011;2496;52.468;13.342;2023-06-22T05:11:22;10.33;;;8.87;;
4961;SDS011;2496;52.468;13.342;2023-06-22T05:13:49;8.40;;;7.60;;
4961;SDS011;2496;52.468;13.342;2023-06-22T05:16:16;10.80;;;8.33;;
4961;SDS011;2496;52.468;13.342;2023-06-22T05:18:49;12.30;;;8.50;;
4961;SDS011;2496;52.468;13.342;2023-06-22T05:21:19;8.70;;;7.80;;
4961;SDS011;2496;52.468;13.342;2023-06-22T05:23:51;12.77;;;9.10;;
4961;SDS011;2496;52.468;13.342;2023-06-22T05:26:19;12.10;;;9.73;;
4961;SDS011;2496;52.468;13.342;2023-06-22T05:28:47;16.00;;;9.00;;
4961;SDS011;2496;52.468;13.342;2023-06-22T05:31:15;12.03;;;9.50;;
4961;SDS011;2496;52.468;13.342;2023-06-22T05:33:45;12.43;;;10.13;;
4961;SDS011;2496;52.468;13.342;2023-06-22T05:36:13;11.50;;;9.43;;
4961;SDS011;2496;52.468;13.342;2023-06-22T05:38:40;13.30;;;10.23;;
4961;SDS011;2496;52.468;13.342;2023-06-22T05:41:09;13.07;;;9.87;;
4961;SDS011;2496;52.468;13.342;2023-06-22T05:43:36;11.70;;;9.77;;
4961;SDS011;2496;52.468;13.342;2023-06-22T05:46:03;12.53;;;8.40;;
4961;SDS011;2496;52.468;13.342;2023-06-22T05:48:30;11.60;;;9.10;;
4961;SDS011;2496;52.468;13.342;2023-06-22T05:50:58;10.17;;;8.63;;
4961;SDS011;2496;52.468;13.342;2023-06-22T05:53:25;13.67;;;8.90;;
4961;SDS011;2496;52.468;13.342;2023-06-22T05:55:52;11.47;;;8.67;;
4961;SDS011;2496;52.468;13.342;2023-06-22T05:58:21;10.10;;;7.63;;
4961;SDS011;2496;52.468;13.342;2023-06-22T06:00:48;14.60;;;8.83;;
4961;SDS011;2496;52.468;13.342;2023-06-22T06:03:15;12.50;;;8.60;;
4961;SDS011;2496;52.468;13.342;2023-06-22T06:05:42;11.97;;;9.40;;
4961;SDS011;2496;52.468;13.342;2023-06-22T06:08:10;12.23;;;8.10;;
4961;SDS011;2496;52.468;13.342;2023-06-22T06:10:37;10.50;;;8.03;;
4961;SDS011;2496;52.468;13.342;2023-06-22T06:13:04;13.23;;;8.50;;
4961;SDS011;2496;52.468;13.342;2023-06-22T06:15:34;11.90;;;8.70;;
4961;SDS011;2496;52.468;13.342;2023-06-22T06:18:01;10.60;;;7.40;;
4961;SDS011;2496;52.468;13.342;2023-06-22T06:20:30;11.90;;;8.93;;
4961;SDS011;2496;52.468;13.342;2023-06-22T06:22:57;14.77;;;7.70;;
4961;SDS011;2496;52.468;13.342;2023-06-22T06:25:24;12.17;;;7.37;;
4961;SDS011;2496;52.468;13.342;2023-06-22T06:27:51;10.37;;;7.13;;
4961;SDS011;2496;52.468;13.342;2023-06-22T06:30:19;10.70;;;7.00;;
4961;SDS011;2496;52.468;13.342;2023-06-22T06:32:49;11.80;;;6.07;;
4961;SDS011;2496;52.468;13.342;2023-06-22T06:35:16;7.37;;;5.73;;
4961;SDS011;2496;52.468;13.342;2023-06-22T06:37:43;8.23;;;5.40;;
4961;SDS011;2496;52.468;13.342;2023-06-22T06:40:12;8.30;;;6.37;;
4961;SDS011;2496;52.468;13.342;2023-06-22T06:42:41;8.63;;;6.30;;
4961;SDS011;2496;52.468;13.342;2023-06-22T06:45:10;10.13;;;5.90;;
4961;SDS011;2496;52.468;13.342;2023-06-22T06:47:38;6.73;;;5.60;;
4961;SDS011;2496;52.468;13.342;2023-06-22T06:50:07;6.93;;;4.97;;
4961;SDS011;2496;52.468;13.342;2023-06-22T06:52:35;9.70;;;6.00;;
4961;SDS011;2496;52.468;13.342;2023-06-22T06:55:02;12.20;;;5.23;;
4961;SDS011;2496;52.468;13.342;2023-06-22T06:57:33;11.20;;;6.03;;
4961;SDS011;2496;52.468;13.342;2023-06-22T07:00:00;9.80;;;4.63;;
4961;SDS011;2496;52.468;13.342;2023-06-22T07:02:27;5.97;;;5.37;;
4961;SDS011;2496;52.468;13.342;2023-06-22T07:04:54;10.23;;;5.10;;
4961;SDS011;2496;52.468;13.342;2023-06-22T07:07:22;9.93;;;5.63;;
4961;SDS011;2496;52.468;13.342;2023-06-22T07:09:50;5.20;;;4.70;;
4961;SDS011;2496;52.468;13.342;2023-06-22T07:12:17;8.73;;;5.40;;
4961;SDS011;2496;52.468;13.342;2023-06-22T07:14:44;6.37;;;5.27;;
4961;SDS011;2496;52.468;13.342;2023-06-22T07:17:11;5.63;;;4.90;;
4961;SDS011;2496;52.468;13.342;2023-06-22T07:19:38;5.43;;;4.80;;
4961;SDS011;2496;52.468;13.342;2023-06-22T07:22:05;8.37;;;5.80;;
4961;SDS011;2496;52.468;13.342;2023-06-22T07:24:33;5.93;;;4.90;;
4961;SDS011;2496;52.468;13.342;2023-06-22T07:27:00;6.07;;;5.47;;
4961;SDS011;2496;52.468;13.342;2023-06-22T07:29:29;6.50;;;4.97;;
4961;SDS011;2496;52.468;13.342;2023-06-22T07:31:57;5.50;;;4.33;;
4961;SDS011;2496;52.468;13.342;2023-06-22T07:34:25;7.83;;;5.80;;
4961;SDS011;2496;52.468;13.342;2023-06-22T07:36:52;5.90;;;5.30;;
4961;SDS011;2496;52.468;13.342;2023-06-22T07:39:19;6.67;;;4.80;;
4961;SDS011;2496;52.468;13.342;2023-06-22T07:41:52;6.50;;;4.90;;
4961;SDS011;2496;52.468;13.342;2023-06-22T07:44:19;7.80;;;4.23;;
4961;SDS011;2496;52.468;13.342;2023-06-22T07:46:46;5.00;;;4.27;;
4961;SDS011;2496;52.468;13.342;2023-06-22T07:49:13;7.80;;;4.67;;
4961;SDS011;2496;52.468;13.342;2023-06-22T07:51:40;5.53;;;4.60;;
4961;SDS011;2496;52.468;13.342;2023-06-22T07:54:06;10.97;;;4.40;;
4961;SDS011;2496;52.468;13.342;2023-06-22T07:56:35;5.13;;;3.80;;
4961;SDS011;2496;52.468;13.342;2023-06-22T07:59:04;5.57;;;4.07;;
4961;SDS011;2496;52.468;13.342;2023-06-22T08:01:31;7.93;;;5.00;;
4961;SDS011;2496;52.468;13.342;2023-06-22T08:03:57;4.97;;;4.20;;
4961;SDS011;2496;52.468;13.342;2023-06-22T08:06:24;6.00;;;4.23;;
4961;SDS011;2496;52.468;13.342;2023-06-22T08:08:51;5.50;;;4.43;;
4961;SDS011;2496;52.468;13.342;2023-06-22T08:11:24;4.07;;;3.37;;
4961;SDS011;2496;52.468;13.342;2023-06-22T08:13:51;6.30;;;3.97;;
4961;SDS011;2496;52.468;13.342;2023-06-22T08:16:22;6.60;;;3.43;;
4961;SDS011;2496;52.468;13.342;2023-06-22T08:18:49;6.13;;;3.67;;
4961;SDS011;2496;52.468;13.342;2023-06-22T08:21:16;11.23;;;4.63;;
4961;SDS011;2496;52.468;13.342;2023-06-22T08:23:42;6.20;;;3.90;;
4961;SDS011;2496;52.468;13.342;2023-06-22T08:26:09;5.23;;;3.90;;
4961;SDS011;2496;52.468;13.342;2023-06-22T08:28:36;3.80;;;3.40;;
4961;SDS011;2496;52.468;13.342;2023-06-22T08:31:03;5.10;;;3.90;;
4961;SDS011;2496;52.468;13.342;2023-06-22T08:33:32;7.07;;;4.40;;
4961;SDS011;2496;52.468;13.342;2023-06-22T08:35:59;7.73;;;4.50;;
4961;SDS011;2496;52.468;13.342;2023-06-22T08:38:26;6.10;;;3.87;;
4961;SDS011;2496;52.468;13.342;2023-06-22T08:40:53;7.70;;;4.50;;
4961;SDS011;2496;52.468;13.342;2023-06-22T08:43:20;5.30;;;3.97;;
4961;SDS011;2496;52.468;13.342;2023-06-22T08:45:47;10.07;;;3.97;;
4961;SDS011;2496;52.468;13.342;2023-06-22T08:48:14;4.70;;;3.73;;
4961;SDS011;2496;52.468;13.342;2023-06-22T08:50:42;6.07;;;4.10;;
4961;SDS011;2496;52.468;13.342;2023-06-22T08:53:09;6.47;;;3.20;;
4961;SDS011;2496;52.468;13.342;2023-06-22T08:55:36;6.00;;;3.97;;
4961;SDS011;2496;52.468;13.342;2023-06-22T08:58:03;5.50;;;4.23;;
4961;SDS011;2496;52.468;13.342;2023-06-22T09:00:31;5.67;;;4.40;;
4961;SDS011;2496;52.468;13.342;2023-06-22T09:03:00;6.57;;;4.07;;
4961;SDS011;2496;52.468;13.342;2023-06-22T09:05:27;6.13;;;4.00;;
4961;SDS011;2496;52.468;13.342;2023-06-22T09:07:55;21.37;;;3.90;;
4961;SDS011;2496;52.468;13.342;2023-06-22T09:10:23;9.80;;;3.80;;
4961;SDS011;2496;52.468;13.342;2023-06-22T09:12:50;5.43;;;4.40;;
4961;SDS011;2496;52.468;13.342;2023-06-22T09:15:17;4.93;;;3.77;;
4961;SDS011;2496;52.468;13.342;2023-06-22T09:17:44;5.83;;;3.97;;
4961;SDS011;2496;52.468;13.342;2023-06-22T09:20:12;4.23;;;3.83;;
4961;SDS011;2496;52.468;13.342;2023-06-22T09:22:39;5.77;;;3.40;;
4961;SDS011;2496;52.468;13.342;2023-06-22T09:25:08;5.33;;;3.37;;
4961;SDS011;2496;52.468;13.342;2023-06-22T09:27:35;6.27;;;3.20;;
4961;SDS011;2496;52.468;13.342;2023-06-22T09:30:03;7.77;;;3.50;;
4961;SDS011;2496;52.468;13.342;2023-06-22T09:32:31;4.97;;;3.70;;
4961;SDS011;2496;52.468;13.342;2023-06-22T09:34:58;6.17;;;4.17;;
4961;SDS011;2496;52.468;13.342;2023-06-22T09:37:28;5.90;;;3.60;;
4961;SDS011;2496;52.468;13.342;2023-06-22T09:39:55;7.23;;;4.27;;
4961;SDS011;2496;52.468;13.342;2023-06-22T09:42:23;7.03;;;4.53;;
4961;SDS011;2496;52.468;13.342;2023-06-22T09:44:50;4.57;;;4.10;;
4961;SDS011;2496;52.468;13.342;2023-06-22T09:47:17;5.70;;;5.03;;
4961;SDS011;2496;52.468;13.342;2023-06-22T09:49:44;5.27;;;4.03;;
4961;SDS011;2496;52.468;13.342;2023-06-22T09:52:12;5.37;;;4.53;;
4961;SDS011;2496;52.468;13.342;2023-06-22T09:54:39;4.60;;;3.63;;
4961;SDS011;2496;52.468;13.342;2023-06-22T09:57:06;8.13;;;4.40;;
4961;SDS011;2496;52.468;13.342;2023-06-22T09:59:34;6.63;;;4.20;;
4961;SDS011;2496;52.468;13.342;2023-06-22T10:02:01;5.00;;;4.50;;
4961;SDS011;2496;52.468;13.342;2023-06-22T10:04:28;12.17;;;4.43;;
4961;SDS011;2496;52.468;13.342;2023-06-22T10:06:55;5.37;;;4.87;;
4961;SDS011;2496;52.468;13.342;2023-06-22T10:09:22;11.83;;;4.70;;
4961;SDS011;2496;52.468;13.342;2023-06-22T10:11:49;5.67;;;5.10;;
4961;SDS011;2496;52.468;13.342;2023-06-22T10:14:16;4.93;;;4.43;;
4961;SDS011;2496;52.468;13.342;2023-06-22T10:16:44;5.30;;;4.50;;
4961;SDS011;2496;52.468;13.342;2023-06-22T10:19:11;6.90;;;5.17;;
4961;SDS011;2496;52.468;13.342;2023-06-22T10:21:38;6.83;;;4.77;;
4961;SDS011;2496;52.468;13.342;2023-06-22T10:24:05;5.27;;;4.43;;
4961;SDS011;2496;52.468;13.342;2023-06-22T10:26:33;6.20;;;4.73;;
4961;SDS011;2496;52.468;13.342;2023-06-22T10:29:01;4.60;;;4.10;;
4961;SDS011;2496;52.468;13.342;2023-06-22T10:31:28;9.77;;;4.93;;
4961;SDS011;2496;52.468;13.342;2023-06-22T10:33:57;7.73;;;4.67;;
4961;SDS011;2496;52.468;13.342;2023-06-22T10:36:24;7.17;;;4.90;;
4961;SDS011;2496;52.468;13.342;2023-06-22T10:38:51;6.13;;;4.17;;
4961;SDS011;2496;52.468;13.342;2023-06-22T10:41:18;9.33;;;5.60;;
4961;SDS011;2496;52.468;13.342;2023-06-22T10:43:45;6.13;;;4.43;;
4961;SDS011;2496;52.468;13.342;2023-06-22T10:46:12;5.20;;;4.37;;
4961;SDS011;2496;52.468;13.342;2023-06-22T10:48:39;5.90;;;4.60;;
4961;SDS011;2496;52.468;13.342;2023-06-22T10:51:07;8.57;;;4.37;;
4961;SDS011;2496;52.468;13.342;2023-06-22T10:53:34;5.20;;;4.40;;
4961;SDS011;2496;52.468;13.342;2023-06-22T10:56:01;4.67;;;4.10;;
4961;SDS011;2496;52.468;13.342;2023-06-22T10:58:28;5.00;;;4.40;;
4961;SDS011;2496;52.468;13.342;2023-06-22T11:00:55;6.17;;;4.87;;
4961;SDS011;2496;52.468;13.342;2023-06-22T11:03:24;5.10;;;4.50;;
4961;SDS011;2496;52.468;13.342;2023-06-22T11:05:51;5.27;;;4.37;;
4961;SDS011;2496;52.468;13.342;2023-06-22T11:08:20;6.20;;;4.20;;
4961;SDS011;2496;52.468;13.342;2023-06-22T11:10:47;4.80;;;4.30;;
4961;SDS011;2496;52.468;13.342;2023-06-22T11:13:14;6.43;;;4.47;;
4961;SDS011;2496;52.468;13.342;2023-06-22T11:15:41;6.83;;;4.30;;
4961;SDS011;2496;52.468;13.342;2023-06-22T11:18:08;5.63;;;4.33;;
4961;SDS011;2496;52.468;13.342;2023-06-22T11:20:35;5.50;;;4.63;;
4961;SDS011;2496;52.468;13.342;2023-06-22T11:23:04;8.00;;;4.00;;
4961;SDS011;2496;52.468;13.342;2023-06-22T11:25:33;13.00;;;5.00;;
4961;SDS011;2496;52.468;13.342;2023-06-22T11:28:01;5.83;;;4.17;;
4961;SDS011;2496;52.468;13.342;2023-06-22T11:30:28;6.17;;;5.57;;
4961;SDS011;2496;52.468;13.342;2023-06-22T11:32:56;5.10;;;4.60;;
4961;SDS011;2496;52.468;13.342;2023-06-22T11:35:23;6.30;;;4.83;;
4961;SDS011;2496;52.468;13.342;2023-06-22T11:37:50;5.73;;;4.23;;
4961;SDS011;2496;52.468;13.342;2023-06-22T11:40:17;8.50;;;4.87;;
4961;SDS011;2496;52.468;13.342;2023-06-22T11:42:46;8.53;;;5.10;;
4961;SDS011;2496;52.468;13.342;2023-06-22T11:45:13;7.10;;;5.07;;
4961;SDS011;2496;52.468;13.342;2023-06-22T11:47:40;5.40;;;4.87;;
4961;SDS011;2496;52.468;13.342;2023-06-22T11:50:10;5.10;;;4.60;;
4961;SDS011;2496;52.468;13.342;2023-06-22T11:52:37;5.57;;;4.73;;
4961;SDS011;2496;52.468;13.342;2023-06-22T11:55:04;4.60;;;4.20;;
4961;SDS011;2496;52.468;13.342;2023-06-22T11:57:32;5.30;;;4.80;;
4961;SDS011;2496;52.468;13.342;2023-06-22T12:00:02;5.80;;;5.20;;
4961;SDS011;2496;52.468;13.342;2023-06-22T12:02:38;5.50;;;5.00;;
4961;SDS011;2496;52.468;13.342;2023-06-22T12:05:06;6.00;;;5.20;;
4961;SDS011;2496;52.468;13.342;2023-06-22T12:07:33;6.17;;;5.10;;
4961;SDS011;2496;52.468;13.342;2023-06-22T12:10:01;7.40;;;5.60;;
4961;SDS011;2496;52.468;13.342;2023-06-22T12:12:28;6.50;;;5.40;;
4961;SDS011;2496;52.468;13.342;2023-06-22T12:14:55;5.30;;;4.80;;
4961;SDS011;2496;52.468;13.342;2023-06-22T12:17:23;6.10;;;5.10;;
4961;SDS011;2496;52.468;13.342;2023-06-22T12:19:50;6.70;;;4.93;;
4961;SDS011;2496;52.468;13.342;2023-06-22T12:22:17;6.47;;;5.10;;
4961;SDS011;2496;52.468;13.342;2023-06-22T12:24:44;5.70;;;4.80;;
4961;SDS011;2496;52.468;13.342;2023-06-22T12:27:11;5.07;;;4.57;;
4961;SDS011;2496;52.468;13.342;2023-06-22T12:29:38;6.60;;;5.10;;
4961;SDS011;2496;52.468;13.342;2023-06-22T12:32:05;6.53;;;5.40;;
4961;SDS011;2496;52.468;13.342;2023-06-22T12:34:34;5.30;;;4.80;;
4961;SDS011;2496;52.468;13.342;2023-06-22T12:37:01;5.73;;;4.73;;
4961;SDS011;2496;52.468;13.342;2023-06-22T12:39:29;5.10;;;4.60;;
4961;SDS011;2496;52.468;13.342;2023-06-22T12:41:56;5.20;;;4.70;;
4961;SDS011;2496;52.468;13.342;2023-06-22T12:44:23;5.80;;;5.20;;
4961;SDS011;2496;52.468;13.342;2023-06-22T12:46:53;6.27;;;4.60;;
4961;SDS011;2496;52.468;13.342;2023-06-22T12:49:20;4.90;;;4.33;;
4961;SDS011;2496;52.468;13.342;2023-06-22T12:51:48;9.93;;;4.43;;
4961;SDS011;2496;52.468;13.342;2023-06-22T12:54:15;7.33;;;4.70;;
4961;SDS011;2496;52.468;13.342;2023-06-22T12:56:42;6.10;;;4.63;;
4961;SDS011;2496;52.468;13.342;2023-06-22T12:59:10;5.10;;;4.60;;
4961;SDS011;2496;52.468;13.342;2023-06-22T13:01:37;7.10;;;4.93;;
4961;SDS011;2496;52.468;13.342;2023-06-22T13:04:04;6.73;;;4.80;;
4961;SDS011;2496;52.468;13.342;2023-06-22T13:06:31;5.63;;;5.13;;
4961;SDS011;2496;52.468;13.342;2023-06-22T13:09:00;6.60;;;5.50;;
4961;SDS011;2496;52.468;13.342;2023-06-22T13:11:27;6.30;;;5.50;;
4961;SDS011;2496;52.468;13.342;2023-06-22T13:13:54;7.87;;;5.90;;
4961;SDS011;2496;52.468;13.342;2023-06-22T13:16:21;5.57;;;5.07;;
4961;SDS011;2496;52.468;13.342;2023-06-22T13:18:48;6.23;;;5.63;;
4961;SDS011;2496;52.468;13.342;2023-06-22T13:21:15;9.70;;;5.30;;
4961;SDS011;2496;52.468;13.342;2023-06-22T13:23:42;7.27;;;5.60;;
4961;SDS011;2496;52.468;13.342;2023-06-22T13:26:10;6.47;;;5.13;;
4961;SDS011;2496;52.468;13.342;2023-06-22T13:28:37;5.43;;;4.93;;
4961;SDS011;2496;52.468;13.342;2023-06-22T13:31:04;4.90;;;4.50;;
4961;SDS011;2496;52.468;13.342;2023-06-22T13:33:31;13.50;;;5.13;;
4961;SDS011;2496;52.468;13.342;2023-06-22T13:35:58;5.57;;;4.93;;
4961;SDS011;2496;52.468;13.342;2023-06-22T13:38:25;5.10;;;4.60;;
4961;SDS011;2496;52.468;13.342;2023-06-22T13:40:52;6.73;;;5.10;;
4961;SDS011;2496;52.468;13.342;2023-06-22T13:43:22;5.30;;;4.80;;
4961;SDS011;2496;52.468;13.342;2023-06-22T13:45:49;6.50;;;5.33;;
4961;SDS011;2496;52.468;13.342;2023-06-22T13:48:16;5.30;;;4.73;;
4961;SDS011;2496;52.468;13.342;2023-06-22T13:50:43;6.57;;;5.87;;
4961;SDS011;2496;52.468;13.342;2023-06-22T13:53:10;5.60;;;5.00;;
4961;SDS011;2496;52.468;13.342;2023-06-22T13:55:37;6.50;;;5.80;;
4961;SDS011;2496;52.468;13.342;2023-06-22T13:58:04;6.70;;;5.90;;
4961;SDS011;2496;52.468;13.342;2023-06-22T14:00:32;6.83;;;4.97;;
4961;SDS011;2496;52.468;13.342;2023-06-22T14:02:59;7.03;;;5.13;;
4961;SDS011;2496;52.468;13.342;2023-06-22T14:05:26;8.23;;;5.20;;
4961;SDS011;2496;52.468;13.342;2023-06-22T14:07:53;7.03;;;5.73;;
4961;SDS011;2496;52.468;13.342;2023-06-22T14:10:20;5.97;;;4.93;;
4961;SDS011;2496;52.468;13.342;2023-06-22T14:12:47;5.23;;;4.73;;
4961;SDS011;2496;52.468;13.342;2023-06-22T14:15:14;6.83;;;5.50;;
4961;SDS011;2496;52.468;13.342;2023-06-22T14:17:42;6.17;;;5.57;;
4961;SDS011;2496;52.468;13.342;2023-06-22T14:20:10;8.33;;;5.27;;
4961;SDS011;2496;52.468;13.342;2023-06-22T14:22:37;5.93;;;4.80;;
4961;SDS011;2496;52.468;13.342;2023-06-22T14:25:05;6.70;;;5.73;;
4961;SDS011;2496;52.468;13.342;2023-06-22T14:27:33;5.87;;;5.27;;
4961;SDS011;2496;52.468;13.342;2023-06-22T14:30:00;6.13;;;5.37;;
4961;SDS011;2496;52.468;13.342;2023-06-22T14:32:27;6.40;;;5.40;;
4961;SDS011;2496;52.468;13.342;2023-06-22T14:34:56;5.97;;;5.37;;
4961;SDS011;2496;52.468;13.342;2023-06-22T14:37:23;10.97;;;5.47;;
4961;SDS011;2496;52.468;13.342;2023-06-22T14:39:50;6.40;;;5.10;;
4961;SDS011;2496;52.468;13.342;2023-06-22T14:42:17;8.73;;;5.17;;
4961;SDS011;2496;52.468;13.342;2023-06-22T14:44:44;5.93;;;5.33;;
4961;SDS011;2496;52.468;13.342;2023-06-22T14:47:11;6.63;;;6.00;;
4961;SDS011;2496;52.468;13.342;2023-06-22T14:49:38;8.73;;;5.50;;
4961;SDS011;2496;52.468;13.342;2023-06-22T14:52:07;6.60;;;5.20;;
4961;SDS011;2496;52.468;13.342;2023-06-22T14:54:34;6.93;;;5.03;;
4961;SDS011;2496;52.468;13.342;2023-06-22T14:57:01;7.63;;;5.97;;